Time;durP1;ratioP1;P1;durP2;ratioP2;P2;SDS_P1;SDS_P2;PMS_P1;PMS_P2;Temp;Humidity;BMP_temperature;BMP_pressure;BME280_temperature;BME280_humidity;BME280_pressure;Samples;Min_cycle;Max_cycle;Signal;HPM_P1;HPM_P2
2022/11/05 00:10:52;;;;;;;0.25;0.20;;;;;;;8.30;100.00;96271.16;5063000;28;20086;-76
2022/11/05 00:16:42;;;;;;;0.40;0.20;;;;;;;8.26;100.00;96276.16;5065715;28;20036;-74
2022/11/05 00:19:28;;;;;;;0.20;0.20;;;;;;;8.22;100.00;96271.53;5066143;28;20166;-74
2022/11/05 00:25:20;;;;;;;0.28;0.20;;;;;;;8.21;100.00;96289.38;5066422;28;20047;-75
2022/11/05 00:28:06;;;;;;;0.10;0.10;;;;;;;8.06;100.00;96292.56;5067817;28;20044;-75
2022/11/05 00:30:53;;;;;;;0.10;0.10;;;;;;;7.94;100.00;96293.66;5048375;28;20079;-75
2022/11/05 00:33:41;;;;;;;0.10;0.10;;;;;;;7.89;100.00;96299.69;5063989;28;20048;-76
2022/11/05 00:36:27;;;;;;;0.10;0.10;;;;;;;7.79;100.00;96312.78;5049223;28;20120;-75
2022/11/05 00:39:13;;;;;;;0.10;0.10;;;;;;;7.83;100.00;96308.59;5067509;28;20051;-76
2022/11/05 00:45:05;;;;;;;0.10;0.10;;;;;;;7.76;100.00;96310.59;5064985;28;20037;-75
2022/11/05 00:50:55;;;;;;;0.10;0.10;;;;;;;7.73;100.00;96313.72;5067581;28;20040;-75
2022/11/05 00:53:41;;;;;;;0.10;0.10;;;;;;;7.78;100.00;96316.47;5066847;28;20405;-75
2022/11/05 00:56:27;;;;;;;0.10;0.10;;;;;;;7.77;100.00;96320.19;5052071;28;20044;-76
2022/11/05 00:59:12;;;;;;;0.10;0.10;;;;;;;7.75;100.00;96322.28;5062371;28;20040;-76
2022/11/05 01:01:58;;;;;;;0.10;0.10;;;;;;;7.76;100.00;96339.88;5065826;28;20047;-75
2022/11/05 01:04:44;;;;;;;0.10;0.10;;;;;;;7.74;100.00;96341.97;5067948;28;20132;-75
2022/11/05 01:07:30;;;;;;;0.10;0.10;;;;;;;7.77;100.00;96338.84;5066884;28;20050;-75
2022/11/05 01:10:16;;;;;;;0.10;0.10;;;;;;;7.77;100.00;96344.16;5067983;28;20350;-75
2022/11/05 01:13:02;;;;;;;0.10;0.10;;;;;;;7.73;100.00;96349.16;5066113;28;20075;-75
2022/11/05 01:15:49;;;;;;;0.10;0.10;;;;;;;7.69;100.00;96355.97;5066294;28;20178;-76
2022/11/05 01:18:37;;;;;;;0.10;0.10;;;;;;;7.60;100.00;96352.06;5068413;28;20213;-74
2022/11/05 01:21:23;;;;;;;0.17;0.17;;;;;;;7.51;100.00;96364.91;5066064;28;20336;-75
2022/11/05 01:24:09;;;;;;;0.10;0.10;;;;;;;7.42;100.00;96360.97;5065041;28;20052;-76
2022/11/05 01:26:55;;;;;;;0.10;0.10;;;;;;;7.29;100.00;96376.34;5053755;28;20308;-75
2022/11/05 01:29:41;;;;;;;0.10;0.10;;;;;;;7.10;100.00;96364.97;5067396;28;20071;-74
2022/11/05 01:32:27;;;;;;;0.10;0.10;;;;;;;7.15;100.00;96378.38;5067564;28;20483;-75
2022/11/05 01:35:15;;;;;;;0.10;0.10;;;;;;;7.07;100.00;96384.03;5065875;28;20047;-76
2022/11/05 01:38:01;;;;;;;0.10;0.10;;;;;;;7.04;100.00;96392.50;5066073;28;20451;-77
2022/11/05 01:40:47;;;;;;;0.10;0.10;;;;;;;7.00;100.00;96392.13;5054531;28;20484;-74
2022/11/05 01:43:46;;;;;;;0.10;0.10;;;;;;;7.07;100.00;96392.84;5065017;28;20400;-76
2022/11/05 01:46:40;;;;;;;0.10;0.10;;;;;;;7.10;100.00;96383.59;5055537;28;20040;-76
2022/11/05 01:49:30;;;;;;;0.10;0.10;;;;;;;7.11;100.00;96394.03;5065776;28;20067;-76
2022/11/05 01:52:17;;;;;;;0.10;0.10;;;;;;;7.08;100.00;96389.16;5066596;28;20032;-74
2022/11/05 01:55:04;;;;;;;0.10;0.10;;;;;;;7.05;100.00;96386.94;5068638;28;20051;-75
2022/11/05 01:57:53;;;;;;;0.10;0.10;;;;;;;7.08;100.00;96390.97;5071266;28;20586;-76
2022/11/05 02:00:41;;;;;;;0.10;0.10;;;;;;;7.01;100.00;96390.31;5038868;28;20045;-76
2022/11/05 02:03:27;;;;;;;0.10;0.10;;;;;;;6.97;100.00;96384.59;5068923;28;20131;-75
2022/11/05 02:06:18;;;;;;;0.10;0.10;;;;;;;6.99;100.00;96393.16;5068564;28;20043;-77
2022/11/05 02:09:10;;;;;;;0.10;0.10;;;;;;;7.01;100.00;96391.09;5068000;28;20040;-76
2022/11/05 02:11:57;;;;;;;0.10;0.10;;;;;;;7.04;100.00;96390.66;5066961;28;20040;-77
2022/11/05 02:14:43;;;;;;;0.10;0.10;;;;;;;7.02;100.00;96392.72;5058798;28;20047;-75
2022/11/05 02:17:47;;;;;;;0.10;0.10;;;;;;;7.09;100.00;96395.28;5072230;28;20044;-75
2022/11/05 02:21:09;;;;;;;0.15;0.15;;;;;;;7.16;100.00;96399.47;5071209;28;20531;-72
2022/11/05 02:24:07;;;;;;;;;;;;;;;7.17;100.00;96400.28;5072709;28;20471;-74
2022/11/05 02:27:11;;;;;;;0.10;0.10;;;;;;;7.21;100.00;96390.78;5067294;28;19924;-74
2022/11/05 02:30:23;;;;;;;0.10;0.10;;;;;;;7.24;100.00;96393.00;5065747;28;20492;-74
2022/11/05 02:33:29;;;;;;;0.10;0.10;;;;;;;7.28;100.00;96401.34;5059898;28;20097;-72
2022/11/05 02:36:48;;;;;;;0.10;0.10;;;;;;;7.32;100.00;96397.19;5070165;28;20071;-73
2022/11/05 02:40:10;;;;;;;0.10;0.10;;;;;;;7.25;100.00;96408.75;5053019;28;20133;-74
2022/11/05 02:43:17;;;;;;;0.10;0.10;;;;;;;7.32;100.00;96400.66;5056081;28;20142;-72
2022/11/05 02:46:51;;;;;;;0.10;0.10;;;;;;;7.30;100.00;96399.25;5071066;28;20044;-73
2022/11/05 02:49:57;;;;;;;0.10;0.10;;;;;;;7.31;100.00;96412.31;4993385;28;20147;-75
2022/11/05 02:52:57;;;;;;;0.10;0.10;;;;;;;7.33;100.00;96412.13;4994459;28;20049;-76
2022/11/05 02:55:58;;;;;;;0.10;0.10;;;;;;;7.35;100.00;96408.19;5067468;28;20248;-76
2022/11/05 02:58:43;;;;;;;0.20;0.20;;;;;;;7.04;100.00;96400.47;5049307;28;20036;-76
2022/11/05 03:01:29;;;;;;;0.10;0.10;;;;;;;7.09;100.00;96408.59;5042163;28;20420;-77
2022/11/05 03:04:18;;;;;;;0.10;0.10;;;;;;;7.14;100.00;96412.19;5069851;28;20040;-77
2022/11/05 03:07:21;;;;;;;0.10;0.10;;;;;;;7.21;100.00;96401.44;5061598;28;20479;-75
2022/11/05 03:10:39;;;;;;;0.10;0.10;;;;;;;7.22;100.00;96405.72;5077827;28;20131;-77
2022/11/05 03:13:41;;;;;;;0.10;0.10;;;;;;;7.20;100.00;96413.94;5072869;28;20040;-77
2022/11/05 03:16:37;;;;;;;0.10;0.10;;;;;;;7.20;100.00;96407.81;5075112;28;20230;-75
2022/11/05 03:19:40;;;;;;;0.10;0.10;;;;;;;7.23;100.00;96407.34;5071968;28;20077;-77
2022/11/05 03:22:33;;;;;;;0.10;0.10;;;;;;;7.22;100.00;96419.84;5073133;28;20044;-77
2022/11/05 03:25:28;;;;;;;0.40;0.20;;;;;;;7.20;100.00;96423.78;5072799;28;20032;-76
2022/11/05 03:28:19;;;;;;;0.52;0.40;;;;;;;7.19;100.00;96425.63;5046746;28;20036;-76
2022/11/05 03:31:13;;;;;;;0.38;0.30;;;;;;;7.19;100.00;96428.28;5072113;28;20479;-75
2022/11/05 03:34:00;;;;;;;0.38;0.30;;;;;;;7.16;100.00;96427.91;5074892;28;20567;-76
2022/11/05 03:37:13;;;;;;;0.98;0.50;;;;;;;7.11;100.00;96433.13;5073295;28;20089;-76
2022/11/05 03:40:03;;;;;;;1.08;0.50;;;;;;;7.11;100.00;96427.81;5062302;28;20134;-77
2022/11/05 03:42:54;;;;;;;0.60;0.35;;;;;;;7.10;100.00;96431.50;5069165;28;20044;-75
2022/11/05 03:45:45;;;;;;;2.10;1.30;;;;;;;7.11;100.00;96433.13;5045111;28;20385;-76
2022/11/05 03:48:35;;;;;;;1.80;0.90;;;;;;;7.07;100.00;96431.94;5076170;28;20051;-76
2022/11/05 03:51:35;;;;;;;1.67;0.90;;;;;;;7.05;100.00;96444.66;5059075;28;20068;-76
2022/11/05 03:54:23;;;;;;;1.38;0.68;;;;;;;7.02;100.00;96439.81;5075782;28;20040;-75
2022/11/05 03:57:33;;;;;;;2.28;1.40;;;;;;;7.05;100.00;96444.66;5075358;28;20415;-75
2022/11/05 04:00:21;;;;;;;2.15;1.27;;;;;;;7.01;100.00;96446.16;5059820;28;20125;-73
2022/11/05 04:03:07;;;;;;;1.73;1.00;;;;;;;6.96;100.00;96431.69;5056683;28;20040;-73
2022/11/05 04:18:57;;;;;;;;;;;;;;;7.04;100.00;96459.81;5056808;28;20044;-74
2022/11/05 04:24:47;;;;;;;0.10;0.10;;;;;;;6.98;100.00;96466.84;5074004;28;20040;-73
2022/11/05 04:27:33;;;;;;;0.10;0.10;;;;;;;6.83;100.00;96469.09;5074202;28;20094;-74
2022/11/05 04:30:22;;;;;;;0.10;0.10;;;;;;;6.73;100.00;96471.47;5074000;28;20049;-75
2022/11/05 04:33:15;;;;;;;0.17;0.15;;;;;;;6.86;100.00;96478.50;5058532;28;20232;-74
2022/11/05 04:36:04;;;;;;;0.10;0.10;;;;;;;6.94;100.00;96481.66;5076812;28;20079;-75
2022/11/05 04:38:50;;;;;;;0.20;0.20;;;;;;;6.97;100.00;96475.88;5063569;28;20054;-75
2022/11/05 04:41:43;;;;;;;0.17;0.17;;;;;;;6.99;100.00;96484.44;5063052;28;20047;-74
2022/11/05 04:44:29;;;;;;;0.15;0.15;;;;;;;7.02;100.00;96498.34;5061440;28;20341;-74
2022/11/05 04:47:15;;;;;;;0.20;0.20;;;;;;;6.99;100.00;96495.06;5069439;28;20522;-75
2022/11/05 04:50:10;;;;;;;0.10;0.10;;;;;;;6.86;100.00;96481.16;5062875;28;20480;-74
2022/11/05 04:52:57;;;;;;;0.10;0.10;;;;;;;6.80;100.00;96490.84;5076892;28;20044;-74
2022/11/05 04:55:44;;;;;;;0.10;0.10;;;;;;;6.75;100.00;96489.88;5061527;28;20530;-74
2022/11/05 04:58:29;;;;;;;0.10;0.10;;;;;;;6.81;100.00;96491.63;5073048;28;20161;-75
2022/11/05 05:01:18;;;;;;;0.10;0.10;;;;;;;6.84;100.00;96494.66;5051405;28;20056;-73
2022/11/05 05:04:07;;;;;;;0.13;0.13;;;;;;;6.87;100.00;96485.44;5074109;28;20040;-73
2022/11/05 05:07:06;;;;;;;0.10;0.10;;;;;;;6.93;100.00;96493.34;5053039;28;20048;-73
2022/11/05 05:09:53;;;;;;;0.10;0.10;;;;;;;6.97;100.00;96496.34;5047065;28;20052;-73
2022/11/05 05:12:39;;;;;;;0.10;0.10;;;;;;;7.06;100.00;96502.97;5076749;28;20075;-74
2022/11/05 05:15:31;;;;;;;0.20;0.20;;;;;;;7.08;100.00;96508.91;5079679;28;20051;-74
2022/11/05 05:18:17;;;;;;;0.10;0.10;;;;;;;7.09;100.00;96520.34;5071513;28;20032;-74
2022/11/05 05:24:12;;;;;;;0.10;0.10;;;;;;;6.96;100.00;96513.34;5072187;28;20044;-73
2022/11/05 05:26:58;;;;;;;0.10;0.10;;;;;;;7.06;100.00;96510.16;5061165;28;20040;-74
2022/11/05 05:29:46;;;;;;;0.10;0.10;;;;;;;7.11;100.00;96519.09;5061716;28;20075;-73
2022/11/05 05:32:36;;;;;;;0.20;0.20;;;;;;;7.14;100.00;96529.28;5073544;28;20082;-74
2022/11/05 05:35:22;;;;;;;0.20;0.20;;;;;;;7.10;100.00;96522.78;5075756;28;20193;-74
2022/11/05 05:38:08;;;;;;;0.20;0.20;;;;;;;7.05;100.00;96529.81;5058954;28;20040;-74
2022/11/05 05:40:58;;;;;;;0.20;0.20;;;;;;;7.02;100.00;96528.41;5047844;28;20068;-75
2022/11/05 05:43:51;;;;;;;0.10;0.10;;;;;;;7.01;100.00;96532.13;5077706;28;20043;-74
2022/11/05 05:46:44;;;;;;;0.15;0.15;;;;;;;6.96;100.00;96530.13;5077153;28;20051;-74
2022/11/05 05:49:30;;;;;;;0.10;0.10;;;;;;;6.91;100.00;96545.94;5075917;28;20040;-76
2022/11/05 05:52:20;;;;;;;0.10;0.10;;;;;;;6.90;100.00;96548.81;5072362;28;20040;-75
2022/11/05 05:55:06;;;;;;;0.15;0.15;;;;;;;6.87;100.00;96551.94;5061835;28;20487;-76
2022/11/05 05:57:52;;;;;;;0.10;0.10;;;;;;;6.77;100.00;96547.13;5072914;28;20094;-76
2022/11/05 06:00:42;;;;;;;0.10;0.10;;;;;;;6.79;100.00;96547.72;5033733;28;20123;-76
2022/11/05 06:03:31;;;;;;;0.10;0.10;;;;;;;6.80;100.00;96549.34;5064208;28;20032;-75
2022/11/05 06:06:20;;;;;;;0.10;0.10;;;;;;;6.92;100.00;96560.03;5071752;28;20106;-76
2022/11/05 06:09:10;;;;;;;0.13;0.13;;;;;;;6.90;100.00;96562.13;5066689;28;20531;-75
2022/11/05 06:11:59;;;;;;;0.20;0.20;;;;;;;6.90;100.00;96554.94;5080211;28;20048;-75
2022/11/05 06:15:04;;;;;;;0.20;0.20;;;;;;;6.95;100.00;96563.09;5074632;28;20055;-75
2022/11/05 06:17:53;;;;;;;0.20;0.20;;;;;;;6.97;100.00;96568.19;5082028;28;20318;-75
2022/11/05 06:20:45;;;;;;;0.10;0.10;;;;;;;6.97;100.00;96568.19;5065916;28;20115;-75
2022/11/05 06:23:31;;;;;;;0.10;0.10;;;;;;;6.98;100.00;96569.78;5075060;28;20048;-75
2022/11/05 06:26:21;;;;;;;0.20;0.20;;;;;;;6.92;100.00;96568.84;5072758;28;20036;-75
2022/11/05 06:29:09;;;;;;;0.20;0.20;;;;;;;6.96;100.00;96562.03;5074681;28;20040;-76
2022/11/05 06:31:55;;;;;;;0.10;0.10;;;;;;;7.00;100.00;96570.38;5075516;28;20067;-76
2022/11/05 06:34:42;;;;;;;0.10;0.10;;;;;;;6.99;100.00;96574.88;5061845;28;20379;-76
2022/11/05 06:37:34;;;;;;;0.10;0.10;;;;;;;6.92;100.00;96565.34;5074320;28;20331;-75
2022/11/05 06:40:20;;;;;;;0.17;0.17;;;;;;;7.02;100.00;96580.81;5046713;28;20045;-76
2022/11/05 06:43:06;;;;;;;0.10;0.10;;;;;;;6.97;100.00;96576.16;5070269;28;20129;-75
2022/11/05 06:45:56;;;;;;;0.20;0.20;;;;;;;6.95;100.00;96578.25;5072199;28;20257;-76
2022/11/05 06:48:42;;;;;;;0.10;0.10;;;;;;;6.91;100.00;96588.50;5046187;28;20604;-76
2022/11/05 06:51:29;;;;;;;0.10;0.10;;;;;;;6.83;100.00;96588.78;5067250;28;20501;-76
2022/11/05 06:54:14;;;;;;;0.10;0.10;;;;;;;6.88;100.00;96588.94;5065645;28;20044;-76
2022/11/05 06:57:00;;;;;;;0.10;0.10;;;;;;;6.94;100.00;96597.91;5068057;28;20028;-76
2022/11/05 06:59:46;;;;;;;0.20;0.20;;;;;;;6.98;100.00;96594.56;5024117;28;20044;-76
2022/11/05 07:02:37;;;;;;;0.10;0.10;;;;;;;7.05;100.00;96602.47;5068158;28;20043;-76
2022/11/05 07:05:23;;;;;;;0.10;0.10;;;;;;;7.09;100.00;96602.84;5066332;28;20032;-76
2022/11/05 07:08:09;;;;;;;0.10;0.10;;;;;;;7.19;100.00;96613.78;5079101;28;20279;-76
2022/11/05 07:11:04;;;;;;;0.10;0.10;;;;;;;7.18;100.00;96620.13;5078274;28;20040;-75
2022/11/05 07:13:54;;;;;;;0.10;0.10;;;;;;;7.05;100.00;96626.41;5066172;28;20050;-76
2022/11/05 07:16:41;;;;;;;0.10;0.10;;;;;;;7.05;100.00;96625.59;5062377;28;20060;-76
2022/11/05 07:19:31;;;;;;;0.10;0.10;;;;;;;7.09;100.00;96622.28;5049594;28;20036;-75
2022/11/05 07:22:16;;;;;;;0.20;0.17;;;;;;;7.13;100.00;96619.97;5058193;28;20075;-76
2022/11/05 07:25:04;;;;;;;0.10;0.10;;;;;;;7.15;100.00;96631.22;5070050;28;20047;-76
2022/11/05 07:27:50;;;;;;;0.17;0.17;;;;;;;7.29;100.00;96638.00;5061739;28;20033;-76
2022/11/05 07:30:37;;;;;;;0.10;0.10;;;;;;;7.37;100.00;96642.22;5074370;28;20044;-76
2022/11/05 07:33:23;;;;;;;0.10;0.10;;;;;;;7.58;100.00;96644.41;5072744;28;20537;-76
2022/11/05 07:36:09;;;;;;;0.32;0.10;;;;;;;7.78;100.00;96649.47;5060155;28;20045;-76
2022/11/05 07:38:56;;;;;;;0.10;0.10;;;;;;;7.79;100.00;96653.78;5075680;28;20072;-75
2022/11/05 07:41:41;;;;;;;0.10;0.10;;;;;;;7.76;100.00;96652.34;5070258;28;20036;-77
2022/11/05 07:44:27;;;;;;;0.17;0.17;;;;;;;7.60;100.00;96660.16;5068817;28;20043;-76
2022/11/05 07:47:13;;;;;;;0.10;0.10;;;;;;;7.50;100.00;96666.84;5071885;28;20119;-76
2022/11/05 07:50:02;;;;;;;0.10;0.10;;;;;;;7.40;100.00;96671.06;5076903;28;20520;-76
2022/11/05 07:52:49;;;;;;;0.10;0.10;;;;;;;7.42;100.00;96671.66;5043779;28;20070;-76
2022/11/05 07:55:35;;;;;;;0.10;0.10;;;;;;;7.53;100.00;96684.22;5067273;28;20040;-77
2022/11/05 07:58:21;;;;;;;0.10;0.10;;;;;;;7.67;100.00;96687.53;5070720;28;20766;-76
2022/11/05 08:01:07;;;;;;;0.10;0.10;;;;;;;7.73;100.00;96691.97;5038989;28;20111;-76
2022/11/05 08:03:53;;;;;;;0.10;0.10;;;;;;;7.77;100.00;96693.13;5069005;28;20166;-76
2022/11/05 08:06:39;;;;;;;0.10;0.10;;;;;;;7.79;100.00;96701.72;5058617;28;20036;-76
2022/11/05 08:09:25;;;;;;;0.10;0.10;;;;;;;7.79;100.00;96696.41;5072956;28;20040;-76
2022/11/05 08:12:10;;;;;;;0.10;0.10;;;;;;;7.81;100.00;96695.13;5058527;28;20032;-76
2022/11/05 08:14:57;;;;;;;0.10;0.10;;;;;;;7.86;100.00;96689.13;5069105;28;20048;-76
2022/11/05 08:17:46;;;;;;;0.10;0.10;;;;;;;7.92;100.00;96696.22;5070633;28;20127;-75
2022/11/05 08:20:40;;;;;;;0.10;0.10;;;;;;;7.76;100.00;96687.00;5073083;28;20182;-75
2022/11/05 08:23:30;;;;;;;0.10;0.10;;;;;;;7.90;100.00;96692.97;5072281;28;20503;-76
2022/11/05 08:26:18;;;;;;;0.20;0.20;;;;;;;7.98;100.00;96692.66;5053173;28;20640;-76
2022/11/05 08:29:04;;;;;;;0.10;0.10;;;;;;;8.25;100.00;96697.59;5072156;28;20084;-75
2022/11/05 08:31:51;;;;;;;0.20;0.20;;;;;;;8.48;100.00;96689.72;5047126;28;20043;-75
2022/11/05 08:34:38;;;;;;;0.10;0.10;;;;;;;8.50;100.00;96690.28;5062650;28;20439;-75
2022/11/05 08:37:24;;;;;;;0.10;0.10;;;;;;;8.64;100.00;96688.22;5066607;28;20531;-76
2022/11/05 08:40:21;;;;;;;0.10;0.10;;;;;;;8.74;100.00;96696.47;5060619;28;20049;-76
2022/11/05 08:43:14;;;;;;;0.10;0.10;;;;;;;8.69;100.00;96695.50;5076676;28;20055;-76
2022/11/05 08:46:00;;;;;;;0.10;0.10;;;;;;;8.40;100.00;96705.19;5066180;28;20076;-75
2022/11/05 08:48:48;;;;;;;0.10;0.10;;;;;;;8.24;100.00;96706.63;5044849;28;20039;-76
2022/11/05 08:51:45;;;;;;;0.20;0.20;;;;;;;8.18;100.00;96713.72;5063465;28;20120;-76
2022/11/05 08:54:31;;;;;;;0.10;0.10;;;;;;;8.13;100.00;96712.75;5061193;28;20053;-77
2022/11/05 08:57:17;;;;;;;0.10;0.10;;;;;;;8.07;100.00;96703.81;5071666;28;20528;-76
2022/11/05 09:00:03;;;;;;;0.10;0.10;;;;;;;7.95;100.00;96709.09;5068882;28;20373;-76
2022/11/05 09:02:49;;;;;;;0.10;0.10;;;;;;;8.00;100.00;96705.75;5075545;28;20477;-76
2022/11/05 09:05:38;;;;;;;0.10;0.10;;;;;;;8.05;100.00;96711.22;5072903;28;20361;-76
2022/11/05 09:08:24;;;;;;;0.15;0.15;;;;;;;8.14;100.00;96714.38;5074680;28;20390;-76
2022/11/05 09:11:10;;;;;;;0.10;0.10;;;;;;;8.02;100.00;96712.50;5075813;28;20411;-77
2022/11/05 09:13:56;;;;;;;0.10;0.10;;;;;;;7.78;100.00;96721.38;5057387;28;20483;-77
2022/11/05 09:16:42;;;;;;;0.10;0.10;;;;;;;7.97;100.00;96722.19;5043092;28;20063;-77
2022/11/05 09:19:27;;;;;;;0.20;0.20;;;;;;;8.90;100.00;96721.66;5072955;28;20531;-77
2022/11/05 09:22:13;;;;;;;0.20;0.20;;;;;;;10.40;100.00;96723.44;5065731;28;20043;-77
2022/11/05 09:24:59;;;;;;;0.10;0.10;;;;;;;10.47;100.00;96724.09;5064150;28;20146;-78
2022/11/05 09:27:45;;;;;;;0.10;0.10;;;;;;;9.97;100.00;96735.44;5070364;28;20385;-77
2022/11/05 09:30:33;;;;;;;0.10;0.10;;;;;;;9.44;100.00;96739.16;5075572;28;20156;-78
2022/11/05 09:33:21;;;;;;;0.10;0.10;;;;;;;9.18;100.00;96737.78;5060228;28;20072;-75
2022/11/05 09:36:08;;;;;;;0.10;0.10;;;;;;;9.01;100.00;96742.19;5060679;28;20040;-78
2022/11/05 09:38:53;;;;;;;0.13;0.10;;;;;;;9.03;100.00;96745.44;5076573;28;20730;-78
2022/11/05 09:41:42;;;;;;;0.20;0.20;;;;;;;9.84;100.00;96746.41;5075728;28;20032;-78
2022/11/05 09:44:42;;;;;;;0.10;0.10;;;;;;;10.97;100.00;96749.25;5073447;28;20041;-78
2022/11/05 09:47:43;;;;;;;0.10;0.10;;;;;;;11.07;100.00;96744.09;5024214;28;20373;-78
2022/11/05 09:50:36;;;;;;;0.20;0.20;;;;;;;11.18;100.00;96753.88;5068757;28;20062;-78
2022/11/05 09:53:22;;;;;;;0.50;0.47;;;;;;;12.78;100.00;96759.09;5066675;28;20185;-78
2022/11/05 09:56:25;;;;;;;0.30;0.30;;;;;;;17.89;94.75;96732.19;5074061;28;20044;-78
2022/11/05 09:59:28;;;;;;;0.10;0.10;;;;;;;15.98;94.30;96744.94;5073315;28;20040;-78
2022/11/05 10:02:19;;;;;;;0.10;0.10;;;;;;;14.41;100.00;96743.91;5071651;28;20040;-79
2022/11/05 10:05:10;;;;;;;0.10;0.10;;;;;;;13.42;100.00;96740.25;5068728;28;20047;-78
2022/11/05 10:08:25;;;;;;;0.20;0.20;;;;;;;12.91;100.00;96757.84;5072532;28;20032;-78
2022/11/05 10:11:19;;;;;;;0.17;0.17;;;;;;;13.85;100.00;96746.38;5068162;28;20047;-78
2022/11/05 10:14:13;;;;;;;0.20;0.20;;;;;;;13.74;100.00;96750.91;5070761;28;20468;-78
2022/11/05 10:17:14;;;;;;;0.10;0.10;;;;;;;13.17;100.00;96751.63;5069333;28;20047;-78
2022/11/05 10:20:15;;;;;;;0.10;0.10;;;;;;;13.48;100.00;96751.84;5068000;28;20075;-78
2022/11/05 10:23:12;;;;;;;0.10;0.10;;;;;;;15.99;100.00;96747.38;5070084;28;20069;-78
2022/11/05 10:26:04;;;;;;;0.10;0.10;;;;;;;14.37;100.00;96753.59;5057755;28;20097;-78
2022/11/05 10:28:50;;;;;;;;;;;;;;;13.01;100.00;96747.19;5071399;28;20479;-78
2022/11/05 10:31:36;;;;;;;0.10;0.10;;;;;;;12.55;100.00;96760.22;5056104;28;19942;-78
2022/11/05 10:34:28;;;;;;;0.30;0.30;;;;;;;16.27;100.00;96748.63;5071400;28;20411;-78
2022/11/05 10:37:13;;;;;;;0.20;0.20;;;;;;;16.06;93.23;96752.47;5070588;28;20047;-78
2022/11/05 10:39:59;;;;;;;0.28;0.28;;;;;;;18.95;89.05;96740.00;5071219;28;20050;-78
2022/11/05 10:43:01;;;;;;;0.20;0.20;;;;;;;23.11;54.01;96735.13;5071801;28;20052;-79
2022/11/05 10:45:57;;;;;;;0.20;0.20;;;;;;;24.11;51.22;96723.78;5067734;28;20032;-76
2022/11/05 10:48:58;;;;;;;0.20;0.20;;;;;;;25.86;40.48;96727.59;5042040;28;20072;-77
2022/11/05 10:51:51;;;;;;;0.20;0.20;;;;;;;27.20;40.81;96727.47;5067537;28;20556;-77
2022/11/05 10:54:37;;;;;;;0.13;0.13;;;;;;;24.64;34.23;96728.66;5071472;28;20136;-78
2022/11/05 10:57:36;;;;;;;0.10;0.10;;;;;;;25.78;34.53;96730.09;5071713;28;20118;-78
2022/11/05 11:00:24;;;;;;;0.20;0.20;;;;;;;26.40;42.54;96730.97;5063810;28;20408;-78
2022/11/05 11:03:29;;;;;;;0.17;0.17;;;;;;;27.88;30.45;96727.38;5068411;28;20673;-78
2022/11/05 11:06:24;;;;;;;0.10;0.10;;;;;;;26.66;30.63;96736.06;5070076;28;20044;-78
2022/11/05 11:09:30;;;;;;;0.10;0.10;;;;;;;28.08;30.44;96727.44;5072033;28;20458;-78
2022/11/05 11:12:23;;;;;;;0.10;0.10;;;;;;;27.20;31.03;96730.22;5056223;28;20043;-77
2022/11/05 11:15:27;;;;;;;0.00;0.00;;;;;;;22.62;38.31;96742.63;5071641;28;20134;-78
2022/11/05 11:18:22;;;;;;;0.10;0.08;;;;;;;19.33;54.81;96756.22;5069547;28;20080;-78
2022/11/05 11:21:18;;;;;;;0.10;0.10;;;;;;;16.86;73.12;96761.25;5071007;28;20044;-77
2022/11/05 11:24:08;;;;;;;0.10;0.10;;;;;;;15.98;87.26;96761.16;5068330;28;20051;-77
2022/11/05 11:26:59;;;;;;;0.10;0.10;;;;;;;14.65;93.32;96761.22;5070061;28;20055;-77
2022/11/05 11:29:53;;;;;;;0.10;0.10;;;;;;;14.19;94.40;96761.06;5067714;28;20491;-77
2022/11/05 11:32:39;;;;;;;0.10;0.10;;;;;;;13.34;98.81;96762.25;5056821;28;20051;-77
2022/11/05 11:35:25;;;;;;;0.00;0.00;;;;;;;12.57;100.00;96768.00;5053076;28;20043;-77
2022/11/05 11:38:14;;;;;;;0.10;0.10;;;;;;;12.37;100.00;96765.91;5066381;28;20116;-77
2022/11/05 11:41:31;;;;;;;0.10;0.10;;;;;;;12.02;100.00;96764.44;5070267;28;20136;-77
2022/11/05 11:44:41;;;;;;;0.10;0.10;;;;;;;12.15;100.00;96763.25;5055213;28;20300;-78
2022/11/05 11:47:28;;;;;;;0.10;0.10;;;;;;;12.42;100.00;96760.59;5040174;28;20323;-78
2022/11/05 11:50:37;;;;;;;0.10;0.10;;;;;;;12.71;100.00;96755.78;5054175;28;20374;-78
2022/11/05 11:53:25;;;;;;;0.10;0.10;;;;;;;13.51;100.00;96757.50;5070037;28;20490;-77
2022/11/05 11:56:11;;;;;;;0.10;0.10;;;;;;;14.98;95.66;96746.44;5070416;28;22308;-78
2022/11/05 11:59:32;;;;;;;0.20;0.20;;;;;;;14.57;95.87;96760.94;5068442;28;20128;-77
2022/11/05 12:02:33;;;;;;;0.10;0.10;;;;;;;14.78;96.27;96754.50;5066788;28;20299;-78
2022/11/05 12:05:27;;;;;;;0.10;0.10;;;;;;;14.92;90.27;96757.47;5068621;28;20432;-78
2022/11/05 12:08:15;;;;;;;0.20;0.20;;;;;;;15.90;88.92;96743.63;5067291;28;20177;-78
2022/11/05 12:11:22;;;;;;;0.10;0.10;;;;;;;15.97;86.60;96748.75;5068891;28;20047;-78
2022/11/05 12:14:36;;;;;;;0.15;0.15;;;;;;;15.51;90.27;96740.75;5058389;28;20037;-78
2022/11/05 12:17:45;;;;;;;0.13;0.13;;;;;;;15.05;90.85;96744.28;5070197;28;20032;-78
2022/11/05 12:20:37;;;;;;;0.10;0.10;;;;;;;14.32;95.72;96748.19;5070215;28;20036;-77
2022/11/05 12:23:44;;;;;;;0.10;0.10;;;;;;;14.26;96.73;96750.06;5068740;28;20047;-77
2022/11/05 12:26:51;;;;;;;0.10;0.10;;;;;;;13.40;100.00;96755.03;5057022;28;20040;-78
2022/11/05 12:29:52;;;;;;;0.20;0.20;;;;;;;13.75;100.00;96752.53;5069913;28;20123;-77
2022/11/05 12:33:14;;;;;;;0.35;0.35;;;;;;;19.98;64.70;96742.56;5070105;28;20040;-78
2022/11/05 12:36:20;;;;;;;0.10;0.10;;;;;;;20.34;51.46;96747.28;5059457;28;20048;-78
2022/11/05 12:39:26;;;;;;;0.10;0.10;;;;;;;18.24;61.26;96741.81;5073869;28;20129;-78
2022/11/05 12:42:46;;;;;;;0.30;0.30;;;;;;;18.12;60.07;96743.31;5080866;28;20040;-78
2022/11/05 12:45:59;;;;;;;0.20;0.20;;;;;;;20.76;50.25;96736.03;5077347;28;20496;-78
2022/11/05 12:49:19;;;;;;;0.10;0.10;;;;;;;18.59;62.62;96732.38;5037964;28;20048;-78
2022/11/05 12:52:29;;;;;;;0.10;0.10;;;;;;;18.11;62.16;96728.97;5065144;28;20395;-78
2022/11/05 12:55:39;;;;;;;0.20;0.20;;;;;;;16.49;76.35;96739.28;5079558;28;20113;-78
2022/11/05 12:58:50;;;;;;;0.20;0.20;;;;;;;16.24;76.95;96741.03;5063985;28;20036;-78
2022/11/05 13:01:42;;;;;;;0.10;0.10;;;;;;;15.36;86.03;96738.88;5042163;28;20048;-78
2022/11/05 13:04:52;;;;;;;0.20;0.20;;;;;;;17.47;71.95;96733.69;5065358;28;20140;-77
2022/11/05 13:08:03;;;;;;;0.10;0.10;;;;;;;17.52;68.45;96730.16;5094210;28;20096;-78
2022/11/05 13:11:10;;;;;;;0.10;0.10;;;;;;;18.45;63.15;96736.13;5086346;28;20096;-78
2022/11/05 13:14:14;;;;;;;0.10;0.10;;;;;;;18.79;55.98;96735.94;5066889;28;20082;-78
2022/11/05 13:17:22;;;;;;;0.10;0.10;;;;;;;16.01;74.48;96739.78;5078700;28;20468;-77
2022/11/05 13:20:21;;;;;;;0.10;0.10;;;;;;;15.17;89.43;96741.31;5077093;28;20044;-77
2022/11/05 13:23:29;;;;;;;0.10;0.10;;;;;;;14.26;93.69;96738.50;5065899;28;20392;-77
2022/11/05 13:26:23;;;;;;;0.10;0.10;;;;;;;13.29;100.00;96738.81;5067894;28;20048;-77
2022/11/05 13:29:23;;;;;;;0.10;0.10;;;;;;;13.33;100.00;96725.69;5063917;28;20559;-78
2022/11/05 13:32:18;;;;;;;0.10;0.10;;;;;;;13.54;100.00;96738.19;5075477;28;20049;-77
2022/11/05 13:35:13;;;;;;;0.10;0.10;;;;;;;14.00;99.88;96727.63;5066894;28;20037;-77
2022/11/05 13:41:44;;;;;;;0.10;0.10;;;;;;;12.56;100.00;96751.09;5080233;28;20043;-77
2022/11/05 13:44:50;;;;;;;0.10;0.10;;;;;;;12.70;100.00;96746.94;5080568;28;20047;-77
2022/11/05 13:48:23;;;;;;;0.10;0.10;;;;;;;12.34;100.00;96748.44;5078441;28;20032;-77
2022/11/05 13:51:24;;;;;;;0.10;0.10;;;;;;;12.13;100.00;96736.66;5078414;28;20131;-77
2022/11/05 13:54:41;;;;;;;0.10;0.10;;;;;;;11.34;100.00;96739.66;5079232;28;20296;-77
2022/11/05 13:58:19;;;;;;;0.10;0.10;;;;;;;11.19;100.00;96742.09;5076153;28;20036;-77
2022/11/05 14:01:17;;;;;;;0.10;0.10;;;;;;;10.64;100.00;96740.16;5061490;28;20078;-77
2022/11/05 14:04:04;;;;;;;0.10;0.10;;;;;;;10.73;100.00;96733.34;5063118;28;20064;-78
2022/11/05 14:06:51;;;;;;;0.10;0.10;;;;;;;10.66;100.00;96732.72;5053865;28;20131;-77
2022/11/05 14:09:39;;;;;;;0.10;0.10;;;;;;;11.29;100.00;96736.91;5051207;28;20036;-77
2022/11/05 14:12:46;;;;;;;0.10;0.10;;;;;;;10.79;100.00;96742.28;5068106;28;20097;-77
2022/11/05 14:15:33;;;;;;;0.10;0.10;;;;;;;9.61;100.00;96746.44;5062037;28;20050;-77
2022/11/05 14:19:07;;;;;;;0.10;0.10;;;;;;;9.95;100.00;96750.09;5078717;28;20047;-78
2022/11/05 14:22:35;;;;;;;0.10;0.10;;;;;;;9.29;100.00;96738.81;5062003;28;20403;-78